Integrity — WDF4881 — position and weather

sailwx.info

Track history (hours):
 
Tides and Currents Weather Stations Pressure Air Temp Water Temp Dewpoint Dewpoint Depression Visibility Wind Speed Wind Dir Waves Ship Positions

Integrity

Owner: Canal Barge Company, Inc., Belle Chasse, LA. More information available from US FCC via Universal Licensing System and Coast Guard Vessel Documentation Center.

Last reported at 2014-Dec-18 06:11 UTC. Time now 2014-Dec-18 20:14 UTC.
Position N 29°50' W 092°18'.

Length 19 m; draft 2.8 m.

Type: Towing. MMSI: 367456830.

Date/timePositionNaut miles runAvg speedWind from/ knotsBaromVisibWave heightAir tempDewpointWater temp
2014-Dec-18 06:11N 29°50' W 092°18'4 4.6
2014-Dec-18 05:16N 29°48' W 092°14'36 4.0
2014-Dec-17 20:26N 29°43' W 091°33'7 5.8
2014-Dec-17 19:15N 29°40' W 091°26'4 5.2
2014-Dec-17 18:34N 29°39' W 091°22'6 5.9
2014-Dec-17 17:34N 29°39' W 091°15'5 4.8
2014-Dec-17 16:33N 29°41' W 091°10'2 1.7
2014-Dec-17 15:33N 29°41' W 091°08'0 0.5
2014-Dec-17 14:34N 29°40' W 091°08'1 1.3
2014-Dec-17 13:34N 29°39' W 091°07'2 1.9
2014-Dec-17 12:34N 29°38' W 091°05'3 2.8
2014-Dec-17 11:33N 29°37' W 091°02'4 4.0
2014-Dec-17 10:30N 29°35' W 090°58'7 5.5
2014-Dec-17 09:17N 29°32' W 090°51'  
2014-Dec-14 20:31N 29°56' W 090°00'0 0.0
2014-Dec-14 13:12N 29°56' W 090°00'0 0.0
2014-Dec-14 12:23N 29°56' W 090°00'0 0.0
2014-Dec-14 11:13N 29°56' W 090°00'0 0.0
2014-Dec-14 10:16N 29°56' W 090°00'0 0.0
2014-Dec-14 09:23N 29°56' W 090°00'0 0.0
2014-Dec-14 08:30N 29°56' W 090°00'0 0.0
2014-Dec-14 07:33N 29°56' W 090°00'0 0.0
2014-Dec-14 06:33N 29°56' W 090°00'0 0.0
2014-Dec-14 05:25N 29°56' W 090°00'0 0.0
2014-Dec-14 04:32N 29°56' W 090°00'0 0.0
2014-Dec-14 03:28N 29°56' W 090°00'0 0.0
2014-Dec-14 02:08N 29°56' W 090°00'0 0.0
2014-Dec-14 01:31N 29°56' W 090°00'0 0.0
2014-Dec-14 00:33N 29°56' W 090°00'0 0.0
2014-Dec-13 23:23N 29°56' W 090°00'0 0.0
2014-Dec-13 22:32N 29°56' W 090°00'1 1.0
2014-Dec-13 21:32N 29°56' W 089°59'1 1.0
2014-Dec-13 20:19N 29°56' W 090°00'0 0.2
2014-Dec-13 19:13N 29°56' W 090°00'2 0.2
2014-Dec-13 06:26N 29°55' W 089°58'1 1.1
2014-Dec-13 05:29N 29°55' W 089°59'0 0.0
2014-Dec-13 03:17N 29°55' W 089°59'47 3.1
2014-Dec-12 12:05N 29°32' W 090°47'6 4.0
2014-Dec-12 10:33N 29°33' W 090°54'4 4.0
2014-Dec-12 09:31N 29°35' W 090°58'4 3.7
2014-Dec-12 08:33N 29°37' W 091°01'3 2.5
2014-Dec-12 07:34N 29°37' W 091°04'3 3.3
2014-Dec-12 06:34N 29°38' W 091°07'2 2.0
2014-Dec-12 05:34N 29°40' W 091°08'3 2.9
2014-Dec-12 04:34N 29°41' W 091°11'2 1.9
2014-Dec-12 03:34N 29°41' W 091°13'5 4.8
2014-Dec-12 02:34N 29°39' W 091°18'7 5.5
2014-Dec-12 01:14N 29°40' W 091°27'3 4.4
2014-Dec-12 00:27N 29°42' W 091°30'  
Track history (hours):
 
Tides and Currents Weather Stations Pressure Air Temp Water Temp Dewpoint Dewpoint Depression Visibility Wind Speed Wind Dir Waves Ship Positions

Integrity

Owner: Canal Barge Company, Inc., Belle Chasse, LA. More information available from US FCC via Universal Licensing System and Coast Guard Vessel Documentation Center.

Last reported at 2014-Dec-18 06:11 UTC. Time now 2014-Dec-18 20:14 UTC.
Position N 29°50' W 092°18'.

Length 19 m; draft 2.8 m.

Type: Towing. MMSI: 367456830.

Date/timePositionNaut miles runAvg speedWind from/ knotsBaromVisibWave heightAir tempDewpointWater temp
2014-Dec-18 06:11N 29°50' W 092°18'4 4.6
2014-Dec-18 05:16N 29°48' W 092°14'36 4.0
2014-Dec-17 20:26N 29°43' W 091°33'7 5.8
2014-Dec-17 19:15N 29°40' W 091°26'4 5.2
2014-Dec-17 18:34N 29°39' W 091°22'6 5.9
2014-Dec-17 17:34N 29°39' W 091°15'5 4.8
2014-Dec-17 16:33N 29°41' W 091°10'2 1.7
2014-Dec-17 15:33N 29°41' W 091°08'0 0.5
2014-Dec-17 14:34N 29°40' W 091°08'1 1.3
2014-Dec-17 13:34N 29°39' W 091°07'2 1.9
2014-Dec-17 12:34N 29°38' W 091°05'3 2.8
2014-Dec-17 11:33N 29°37' W 091°02'4 4.0
2014-Dec-17 10:30N 29°35' W 090°58'7 5.5
2014-Dec-17 09:17N 29°32' W 090°51'  
2014-Dec-14 20:31N 29°56' W 090°00'0 0.0
2014-Dec-14 13:12N 29°56' W 090°00'0 0.0
2014-Dec-14 12:23N 29°56' W 090°00'0 0.0
2014-Dec-14 11:13N 29°56' W 090°00'0 0.0
2014-Dec-14 10:16N 29°56' W 090°00'0 0.0
2014-Dec-14 09:23N 29°56' W 090°00'0 0.0
2014-Dec-14 08:30N 29°56' W 090°00'0 0.0
2014-Dec-14 07:33N 29°56' W 090°00'0 0.0
2014-Dec-14 06:33N 29°56' W 090°00'0 0.0
2014-Dec-14 05:25N 29°56' W 090°00'0 0.0
2014-Dec-14 04:32N 29°56' W 090°00'0 0.0
2014-Dec-14 03:28N 29°56' W 090°00'0 0.0
2014-Dec-14 02:08N 29°56' W 090°00'0 0.0
2014-Dec-14 01:31N 29°56' W 090°00'0 0.0
2014-Dec-14 00:33N 29°56' W 090°00'0 0.0
2014-Dec-13 23:23N 29°56' W 090°00'0 0.0
2014-Dec-13 22:32N 29°56' W 090°00'1 1.0
2014-Dec-13 21:32N 29°56' W 089°59'1 1.0
2014-Dec-13 20:19N 29°56' W 090°00'0 0.2
2014-Dec-13 19:13N 29°56' W 090°00'2 0.2
2014-Dec-13 06:26N 29°55' W 089°58'1 1.1
2014-Dec-13 05:29N 29°55' W 089°59'0 0.0
2014-Dec-13 03:17N 29°55' W 089°59'47 3.1
2014-Dec-12 12:05N 29°32' W 090°47'6 4.0
2014-Dec-12 10:33N 29°33' W 090°54'4 4.0
2014-Dec-12 09:31N 29°35' W 090°58'4 3.7
2014-Dec-12 08:33N 29°37' W 091°01'3 2.5
2014-Dec-12 07:34N 29°37' W 091°04'3 3.3
2014-Dec-12 06:34N 29°38' W 091°07'2 2.0
2014-Dec-12 05:34N 29°40' W 091°08'3 2.9
2014-Dec-12 04:34N 29°41' W 091°11'2 1.9
2014-Dec-12 03:34N 29°41' W 091°13'5 4.8
2014-Dec-12 02:34N 29°39' W 091°18'7 5.5
2014-Dec-12 01:14N 29°40' W 091°27'3 4.4
2014-Dec-12 00:27N 29°42' W 091°30'  

Dump ship's entire track history